sensor_id;sensor_type;location;lat;lon;timestamp;temperature;humidity
69895;DHT22;57172;52.034;5.090;2023-09-30T00:01:17;14.30;79.40
69895;DHT22;57172;52.034;5.090;2023-09-30T00:03:45;14.30;79.40
69895;DHT22;57172;52.034;5.090;2023-09-30T00:06:12;14.30;79.40
69895;DHT22;57172;52.034;5.090;2023-09-30T00:08:39;14.30;79.40
69895;DHT22;57172;52.034;5.090;2023-09-30T00:11:08;14.30;79.30
69895;DHT22;57172;52.034;5.090;2023-09-30T00:13:36;14.40;79.30
69895;DHT22;57172;52.034;5.090;2023-09-30T00:16:03;14.40;79.30
69895;DHT22;57172;52.034;5.090;2023-09-30T00:18:30;14.40;79.40
69895;DHT22;57172;52.034;5.090;2023-09-30T00:20:58;14.40;79.30
69895;DHT22;57172;52.034;5.090;2023-09-30T00:23:24;14.40;79.20
69895;DHT22;57172;52.034;5.090;2023-09-30T00:25:52;14.40;79.10
69895;DHT22;57172;52.034;5.090;2023-09-30T00:28:19;14.40;79.10
69895;DHT22;57172;52.034;5.090;2023-09-30T00:30:47;14.40;79.20
69895;DHT22;57172;52.034;5.090;2023-09-30T00:33:15;14.30;79.70
69895;DHT22;57172;52.034;5.090;2023-09-30T00:35:42;14.30;79.70
69895;DHT22;57172;52.034;5.090;2023-09-30T00:38:09;14.30;79.80
69895;DHT22;57172;52.034;5.090;2023-09-30T00:40:37;14.30;79.70
69895;DHT22;57172;52.034;5.090;2023-09-30T00:43:04;14.30;79.90
69895;DHT22;57172;52.034;5.090;2023-09-30T00:45:32;14.30;79.90
69895;DHT22;57172;52.034;5.090;2023-09-30T00:48:00;14.30;80.00
69895;DHT22;57172;52.034;5.090;2023-09-30T00:50:28;14.30;79.90
69895;DHT22;57172;52.034;5.090;2023-09-30T00:52:55;14.30;80.00
69895;DHT22;57172;52.034;5.090;2023-09-30T00:55:23;14.30;79.80
69895;DHT22;57172;52.034;5.090;2023-09-30T00:57:50;14.30;79.80
69895;DHT22;57172;52.034;5.090;2023-09-30T01:00:17;14.30;79.60
69895;DHT22;57172;52.034;5.090;2023-09-30T01:02:46;14.30;79.50
69895;DHT22;57172;52.034;5.090;2023-09-30T01:05:13;14.30;79.50
69895;DHT22;57172;52.034;5.090;2023-09-30T01:07:40;14.30;79.80
69895;DHT22;57172;52.034;5.090;2023-09-30T01:10:08;14.30;79.90
69895;DHT22;57172;52.034;5.090;2023-09-30T01:12:35;14.30;80.00
69895;DHT22;57172;52.034;5.090;2023-09-30T01:15:02;14.30;80.00
69895;DHT22;57172;52.034;5.090;2023-09-30T01:17:34;14.30;80.20
69895;DHT22;57172;52.034;5.090;2023-09-30T01:20:01;14.30;80.10
69895;DHT22;57172;52.034;5.090;2023-09-30T01:22:32;14.30;80.20
69895;DHT22;57172;52.034;5.090;2023-09-30T01:24:59;14.30;80.10
69895;DHT22;57172;52.034;5.090;2023-09-30T01:27:26;14.30;79.90
69895;DHT22;57172;52.034;5.090;2023-09-30T01:29:54;14.30;79.90
69895;DHT22;57172;52.034;5.090;2023-09-30T01:32:21;14.30;80.00
69895;DHT22;57172;52.034;5.090;2023-09-30T01:34:48;14.20;80.10
69895;DHT22;57172;52.034;5.090;2023-09-30T01:37:15;14.20;80.10
69895;DHT22;57172;52.034;5.090;2023-09-30T01:39:42;14.20;80.00
69895;DHT22;57172;52.034;5.090;2023-09-30T01:42:11;14.20;79.90
69895;DHT22;57172;52.034;5.090;2023-09-30T01:44:38;14.20;79.80
69895;DHT22;57172;52.034;5.090;2023-09-30T01:47:06;14.20;79.90
69895;DHT22;57172;52.034;5.090;2023-09-30T01:49:33;14.20;80.00
69895;DHT22;57172;52.034;5.090;2023-09-30T01:52:00;14.20;80.00
69895;DHT22;57172;52.034;5.090;2023-09-30T01:54:27;14.20;80.10
69895;DHT22;57172;52.034;5.090;2023-09-30T01:56:55;14.20;80.00
69895;DHT22;57172;52.034;5.090;2023-09-30T01:59:22;14.20;79.90
69895;DHT22;57172;52.034;5.090;2023-09-30T02:01:49;14.10;79.90
69895;DHT22;57172;52.034;5.090;2023-09-30T02:04:16;14.10;80.10
69895;DHT22;57172;52.034;5.090;2023-09-30T02:06:44;14.10;80.50
69895;DHT22;57172;52.034;5.090;2023-09-30T02:09:11;14.10;80.80
69895;DHT22;57172;52.034;5.090;2023-09-30T02:11:38;14.20;81.00
69895;DHT22;57172;52.034;5.090;2023-09-30T02:14:09;14.20;81.10
69895;DHT22;57172;52.034;5.090;2023-09-30T02:16:39;14.20;81.30
69895;DHT22;57172;52.034;5.090;2023-09-30T02:19:06;14.20;81.40
69895;DHT22;57172;52.034;5.090;2023-09-30T02:21:33;14.20;81.40
69895;DHT22;57172;52.034;5.090;2023-09-30T02:24:03;14.20;81.30
69895;DHT22;57172;52.034;5.090;2023-09-30T02:26:30;14.20;81.20
69895;DHT22;57172;52.034;5.090;2023-09-30T02:28:57;14.20;81.10
69895;DHT22;57172;52.034;5.090;2023-09-30T02:31:24;14.30;81.10
69895;DHT22;57172;52.034;5.090;2023-09-30T02:33:51;14.30;81.10
69895;DHT22;57172;52.034;5.090;2023-09-30T02:36:18;14.30;81.10
69895;DHT22;57172;52.034;5.090;2023-09-30T02:38:46;14.20;81.10
69895;DHT22;57172;52.034;5.090;2023-09-30T02:41:14;14.20;81.20
69895;DHT22;57172;52.034;5.090;2023-09-30T02:43:42;14.20;81.20
69895;DHT22;57172;52.034;5.090;2023-09-30T02:46:09;14.20;81.10
69895;DHT22;57172;52.034;5.090;2023-09-30T02:48:37;14.20;81.30
69895;DHT22;57172;52.034;5.090;2023-09-30T02:51:04;14.20;81.30
69895;DHT22;57172;52.034;5.090;2023-09-30T02:53:31;14.20;81.40
69895;DHT22;57172;52.034;5.090;2023-09-30T02:55:58;14.20;81.50
69895;DHT22;57172;52.034;5.090;2023-09-30T02:58:26;14.20;81.40
69895;DHT22;57172;52.034;5.090;2023-09-30T03:00:54;14.20;81.50
69895;DHT22;57172;52.034;5.090;2023-09-30T03:03:21;14.30;81.50
69895;DHT22;57172;52.034;5.090;2023-09-30T03:05:48;14.30;81.50
69895;DHT22;57172;52.034;5.090;2023-09-30T03:08:17;14.30;81.60
69895;DHT22;57172;52.034;5.090;2023-09-30T03:10:44;14.30;81.70
69895;DHT22;57172;52.034;5.090;2023-09-30T03:13:11;14.20;81.70
69895;DHT22;57172;52.034;5.090;2023-09-30T03:15:38;14.30;81.80
69895;DHT22;57172;52.034;5.090;2023-09-30T03:18:06;14.30;81.70
69895;DHT22;57172;52.034;5.090;2023-09-30T03:20:33;14.30;81.70
69895;DHT22;57172;52.034;5.090;2023-09-30T03:23:00;14.30;81.90
69895;DHT22;57172;52.034;5.090;2023-09-30T03:25:28;14.30;81.90
69895;DHT22;57172;52.034;5.090;2023-09-30T03:27:57;14.30;81.70
69895;DHT22;57172;52.034;5.090;2023-09-30T03:30:24;14.30;81.70
69895;DHT22;57172;52.034;5.090;2023-09-30T03:32:51;14.30;81.80
69895;DHT22;57172;52.034;5.090;2023-09-30T03:35:18;14.30;81.70
69895;DHT22;57172;52.034;5.090;2023-09-30T03:37:46;14.30;81.90
69895;DHT22;57172;52.034;5.090;2023-09-30T03:40:14;14.30;81.90
69895;DHT22;57172;52.034;5.090;2023-09-30T03:42:46;14.30;82.00
69895;DHT22;57172;52.034;5.090;2023-09-30T03:45:17;14.30;81.90
69895;DHT22;57172;52.034;5.090;2023-09-30T03:47:46;14.30;81.90
69895;DHT22;57172;52.034;5.090;2023-09-30T03:50:16;14.20;82.10
69895;DHT22;57172;52.034;5.090;2023-09-30T03:52:44;14.30;82.20
69895;DHT22;57172;52.034;5.090;2023-09-30T03:55:14;14.20;82.20
69895;DHT22;57172;52.034;5.090;2023-09-30T03:57:43;14.20;82.40
69895;DHT22;57172;52.034;5.090;2023-09-30T04:00:14;14.20;82.70
69895;DHT22;57172;52.034;5.090;2023-09-30T04:02:48;14.20;82.60
69895;DHT22;57172;52.034;5.090;2023-09-30T04:05:17;14.30;82.50
69895;DHT22;57172;52.034;5.090;2023-09-30T04:07:46;14.30;82.50
69895;DHT22;57172;52.034;5.090;2023-09-30T04:10:14;14.30;82.40
69895;DHT22;57172;52.034;5.090;2023-09-30T04:12:41;14.20;82.40
69895;DHT22;57172;52.034;5.090;2023-09-30T04:15:09;14.20;82.60
69895;DHT22;57172;52.034;5.090;2023-09-30T04:17:39;14.20;82.60
69895;DHT22;57172;52.034;5.090;2023-09-30T04:20:07;14.20;82.60
69895;DHT22;57172;52.034;5.090;2023-09-30T04:22:45;14.20;82.80
69895;DHT22;57172;52.034;5.090;2023-09-30T04:25:16;14.20;82.80
69895;DHT22;57172;52.034;5.090;2023-09-30T04:27:45;14.20;82.80
69895;DHT22;57172;52.034;5.090;2023-09-30T04:30:15;14.20;82.60
69895;DHT22;57172;52.034;5.090;2023-09-30T04:32:43;14.20;82.60
69895;DHT22;57172;52.034;5.090;2023-09-30T04:35:11;14.20;82.90
69895;DHT22;57172;52.034;5.090;2023-09-30T04:37:38;14.10;83.00
69895;DHT22;57172;52.034;5.090;2023-09-30T04:40:07;14.10;82.90
69895;DHT22;57172;52.034;5.090;2023-09-30T04:42:35;14.10;83.00
69895;DHT22;57172;52.034;5.090;2023-09-30T04:45:06;14.10;82.90
69895;DHT22;57172;52.034;5.090;2023-09-30T04:47:34;14.10;82.80
69895;DHT22;57172;52.034;5.090;2023-09-30T04:50:01;14.10;82.60
69895;DHT22;57172;52.034;5.090;2023-09-30T04:52:34;14.10;82.50
69895;DHT22;57172;52.034;5.090;2023-09-30T04:55:02;14.10;82.40
69895;DHT22;57172;52.034;5.090;2023-09-30T04:57:31;14.10;82.50
69895;DHT22;57172;52.034;5.090;2023-09-30T05:00:01;14.10;82.60
69895;DHT22;57172;52.034;5.090;2023-09-30T05:02:28;14.00;82.90
69895;DHT22;57172;52.034;5.090;2023-09-30T05:04:55;14.00;83.10
69895;DHT22;57172;52.034;5.090;2023-09-30T05:07:22;14.00;83.10
69895;DHT22;57172;52.034;5.090;2023-09-30T05:09:49;14.00;83.10
69895;DHT22;57172;52.034;5.090;2023-09-30T05:12:16;14.00;82.90
69895;DHT22;57172;52.034;5.090;2023-09-30T05:14:43;14.00;82.90
69895;DHT22;57172;52.034;5.090;2023-09-30T05:17:10;14.00;82.80
69895;DHT22;57172;52.034;5.090;2023-09-30T05:19:38;13.90;82.70
69895;DHT22;57172;52.034;5.090;2023-09-30T05:22:05;13.90;82.70
69895;DHT22;57172;52.034;5.090;2023-09-30T05:24:32;13.90;82.50
69895;DHT22;57172;52.034;5.090;2023-09-30T05:26:59;13.90;82.50
69895;DHT22;57172;52.034;5.090;2023-09-30T05:29:26;13.90;82.40
69895;DHT22;57172;52.034;5.090;2023-09-30T05:31:54;13.90;82.50
69895;DHT22;57172;52.034;5.090;2023-09-30T05:34:21;13.80;82.70
69895;DHT22;57172;52.034;5.090;2023-09-30T05:36:48;13.80;82.80
69895;DHT22;57172;52.034;5.090;2023-09-30T05:39:18;13.80;82.70
69895;DHT22;57172;52.034;5.090;2023-09-30T05:41:47;13.80;82.70
69895;DHT22;57172;52.034;5.090;2023-09-30T05:44:14;13.70;82.70
69895;DHT22;57172;52.034;5.090;2023-09-30T05:46:41;13.70;82.70
69895;DHT22;57172;52.034;5.090;2023-09-30T05:49:10;13.70;82.70
69895;DHT22;57172;52.034;5.090;2023-09-30T05:51:41;13.60;82.70
69895;DHT22;57172;52.034;5.090;2023-09-30T05:54:08;13.60;82.40
69895;DHT22;57172;52.034;5.090;2023-09-30T05:56:39;13.60;82.50
69895;DHT22;57172;52.034;5.090;2023-09-30T05:59:09;13.60;82.80
69895;DHT22;57172;52.034;5.090;2023-09-30T06:01:36;13.50;83.10
69895;DHT22;57172;52.034;5.090;2023-09-30T06:04:03;13.50;83.60
69895;DHT22;57172;52.034;5.090;2023-09-30T06:06:32;13.40;83.90
69895;DHT22;57172;52.034;5.090;2023-09-30T06:09:00;13.40;84.10
69895;DHT22;57172;52.034;5.090;2023-09-30T06:11:27;13.40;84.00
69895;DHT22;57172;52.034;5.090;2023-09-30T06:13:58;13.40;84.10
69895;DHT22;57172;52.034;5.090;2023-09-30T06:16:28;13.40;84.20
69895;DHT22;57172;52.034;5.090;2023-09-30T06:18:56;13.40;84.50
69895;DHT22;57172;52.034;5.090;2023-09-30T06:21:25;13.40;84.70
69895;DHT22;57172;52.034;5.090;2023-09-30T06:23:56;13.40;85.00
69895;DHT22;57172;52.034;5.090;2023-09-30T06:26:23;13.40;85.30
69895;DHT22;57172;52.034;5.090;2023-09-30T06:28:52;13.40;85.30
69895;DHT22;57172;52.034;5.090;2023-09-30T06:31:21;13.50;85.40
69895;DHT22;57172;52.034;5.090;2023-09-30T06:33:48;13.50;85.40
69895;DHT22;57172;52.034;5.090;2023-09-30T06:36:16;13.50;85.40
69895;DHT22;57172;52.034;5.090;2023-09-30T06:38:44;13.50;85.50
69895;DHT22;57172;52.034;5.090;2023-09-30T06:41:18;13.60;85.60
69895;DHT22;57172;52.034;5.090;2023-09-30T06:43:45;13.60;85.60
69895;DHT22;57172;52.034;5.090;2023-09-30T06:46:13;13.70;85.70
69895;DHT22;57172;52.034;5.090;2023-09-30T06:48:41;13.70;85.90
69895;DHT22;57172;52.034;5.090;2023-09-30T06:51:13;13.80;86.00
69895;DHT22;57172;52.034;5.090;2023-09-30T06:53:41;13.90;86.10
69895;DHT22;57172;52.034;5.090;2023-09-30T06:56:08;14.00;86.30
69895;DHT22;57172;52.034;5.090;2023-09-30T06:58:36;14.10;86.30
69895;DHT22;57172;52.034;5.090;2023-09-30T07:01:03;14.10;86.50
69895;DHT22;57172;52.034;5.090;2023-09-30T07:03:30;14.20;87.30
69895;DHT22;57172;52.034;5.090;2023-09-30T07:05:57;14.40;88.20
69895;DHT22;57172;52.034;5.090;2023-09-30T07:08:28;14.50;89.10
69895;DHT22;57172;52.034;5.090;2023-09-30T07:10:59;14.80;89.50
69895;DHT22;57172;52.034;5.090;2023-09-30T07:13:27;15.10;89.60
69895;DHT22;57172;52.034;5.090;2023-09-30T07:15:53;15.30;89.10
69895;DHT22;57172;52.034;5.090;2023-09-30T07:18:21;15.50;88.70
69895;DHT22;57172;52.034;5.090;2023-09-30T07:20:48;15.80;88.20
69895;DHT22;57172;52.034;5.090;2023-09-30T07:23:15;16.00;88.10
69895;DHT22;57172;52.034;5.090;2023-09-30T07:25:47;16.30;87.70
69895;DHT22;57172;52.034;5.090;2023-09-30T07:28:14;16.60;87.10
69895;DHT22;57172;52.034;5.090;2023-09-30T07:30:41;16.80;86.20
69895;DHT22;57172;52.034;5.090;2023-09-30T07:33:08;17.10;85.00
69895;DHT22;57172;52.034;5.090;2023-09-30T07:35:36;17.20;83.50
69895;DHT22;57172;52.034;5.090;2023-09-30T07:38:04;17.40;83.60
69895;DHT22;57172;52.034;5.090;2023-09-30T07:40:31;17.70;83.10
69895;DHT22;57172;52.034;5.090;2023-09-30T07:42:59;17.90;81.90
69895;DHT22;57172;52.034;5.090;2023-09-30T07:45:26;18.00;80.80
69895;DHT22;57172;52.034;5.090;2023-09-30T07:47:53;18.20;80.90
69895;DHT22;57172;52.034;5.090;2023-09-30T07:50:21;18.40;80.80
69895;DHT22;57172;52.034;5.090;2023-09-30T07:52:48;18.70;80.40
69895;DHT22;57172;52.034;5.090;2023-09-30T07:55:15;18.90;79.70
69895;DHT22;57172;52.034;5.090;2023-09-30T07:57:43;19.10;78.80
69895;DHT22;57172;52.034;5.090;2023-09-30T08:00:11;19.40;77.90
69895;DHT22;57172;52.034;5.090;2023-09-30T08:02:43;19.60;76.70
69895;DHT22;57172;52.034;5.090;2023-09-30T08:05:11;19.80;75.60
69895;DHT22;57172;52.034;5.090;2023-09-30T08:07:39;20.10;74.90
69895;DHT22;57172;52.034;5.090;2023-09-30T08:10:06;20.30;74.50
69895;DHT22;57172;52.034;5.090;2023-09-30T08:12:40;20.60;72.80
69895;DHT22;57172;52.034;5.090;2023-09-30T08:15:08;20.80;71.80
69895;DHT22;57172;52.034;5.090;2023-09-30T08:17:39;21.00;70.40
69895;DHT22;57172;52.034;5.090;2023-09-30T08:20:07;21.20;70.60
69895;DHT22;57172;52.034;5.090;2023-09-30T08:22:35;21.40;70.40
69895;DHT22;57172;52.034;5.090;2023-09-30T08:25:02;21.70;70.00
69895;DHT22;57172;52.034;5.090;2023-09-30T08:27:29;22.00;69.80
69895;DHT22;57172;52.034;5.090;2023-09-30T08:29:56;22.20;67.20
69895;DHT22;57172;52.034;5.090;2023-09-30T08:32:23;22.40;67.10
69895;DHT22;57172;52.034;5.090;2023-09-30T08:34:50;22.70;66.50
69895;DHT22;57172;52.034;5.090;2023-09-30T08:37:17;23.10;65.60
69895;DHT22;57172;52.034;5.090;2023-09-30T08:39:44;23.40;64.10
69895;DHT22;57172;52.034;5.090;2023-09-30T08:42:12;23.70;63.10
69895;DHT22;57172;52.034;5.090;2023-09-30T08:44:39;23.90;61.60
69895;DHT22;57172;52.034;5.090;2023-09-30T08:47:07;24.10;61.30
69895;DHT22;57172;52.034;5.090;2023-09-30T08:49:38;24.40;60.70
69895;DHT22;57172;52.034;5.090;2023-09-30T08:52:10;24.40;60.40
69895;DHT22;57172;52.034;5.090;2023-09-30T08:54:40;24.60;60.40
69895;DHT22;57172;52.034;5.090;2023-09-30T08:57:09;24.80;60.60
69895;DHT22;57172;52.034;5.090;2023-09-30T08:59:38;25.00;60.20
69895;DHT22;57172;52.034;5.090;2023-09-30T09:02:13;25.30;58.60
69895;DHT22;57172;52.034;5.090;2023-09-30T09:04:40;25.50;58.20
69895;DHT22;57172;52.034;5.090;2023-09-30T09:07:07;25.70;57.80
69895;DHT22;57172;52.034;5.090;2023-09-30T09:09:35;26.00;56.40
69895;DHT22;57172;52.034;5.090;2023-09-30T09:12:02;26.30;56.10
69895;DHT22;57172;52.034;5.090;2023-09-30T09:14:40;26.50;54.50
69895;DHT22;57172;52.034;5.090;2023-09-30T09:17:10;26.60;54.20
69895;DHT22;57172;52.034;5.090;2023-09-30T09:19:37;26.70;53.70
69895;DHT22;57172;52.034;5.090;2023-09-30T09:22:05;26.90;53.70
69895;DHT22;57172;52.034;5.090;2023-09-30T09:24:36;27.10;53.00
69895;DHT22;57172;52.034;5.090;2023-09-30T09:27:13;27.10;52.50
69895;DHT22;57172;52.034;5.090;2023-09-30T09:29:44;27.20;51.80
69895;DHT22;57172;52.034;5.090;2023-09-30T09:32:14;27.30;52.20
69895;DHT22;57172;52.034;5.090;2023-09-30T09:34:43;27.40;51.30
69895;DHT22;57172;52.034;5.090;2023-09-30T09:37:20;27.60;50.50
69895;DHT22;57172;52.034;5.090;2023-09-30T09:39:56;27.40;49.70
69895;DHT22;57172;52.034;5.090;2023-09-30T09:42:31;27.50;49.90
69895;DHT22;57172;52.034;5.090;2023-09-30T09:45:04;27.90;49.90
69895;DHT22;57172;52.034;5.090;2023-09-30T09:47:32;28.40;50.30
69895;DHT22;57172;52.034;5.090;2023-09-30T09:50:03;28.80;48.70
69895;DHT22;57172;52.034;5.090;2023-09-30T09:52:31;29.00;47.70
69895;DHT22;57172;52.034;5.090;2023-09-30T09:55:02;28.70;46.30
69895;DHT22;57172;52.034;5.090;2023-09-30T09:57:31;27.80;46.50
69895;DHT22;57172;52.034;5.090;2023-09-30T09:59:58;27.20;46.80
69895;DHT22;57172;52.034;5.090;2023-09-30T10:02:26;26.70;47.30
69895;DHT22;57172;52.034;5.090;2023-09-30T10:04:56;26.40;47.60
69895;DHT22;57172;52.034;5.090;2023-09-30T10:07:35;26.10;48.10
69895;DHT22;57172;52.034;5.090;2023-09-30T10:10:05;25.70;48.60
69895;DHT22;57172;52.034;5.090;2023-09-30T10:12:38;25.40;48.80
69895;DHT22;57172;52.034;5.090;2023-09-30T10:18:00;25.00;50.90
69895;DHT22;57172;52.034;5.090;2023-09-30T10:20:34;25.50;51.10
69895;DHT22;57172;52.034;5.090;2023-09-30T10:23:21;25.80;50.90
69895;DHT22;57172;52.034;5.090;2023-09-30T10:25:50;26.20;49.50
69895;DHT22;57172;52.034;5.090;2023-09-30T10:28:43;26.40;48.90
69895;DHT22;57172;52.034;5.090;2023-09-30T10:31:19;26.50;48.30
69895;DHT22;57172;52.034;5.090;2023-09-30T10:36:37;26.00;48.80
69895;DHT22;57172;52.034;5.090;2023-09-30T10:39:10;26.00;48.60
69895;DHT22;57172;52.034;5.090;2023-09-30T10:46:53;25.70;47.60
69895;DHT22;57172;52.034;5.090;2023-09-30T10:51:51;26.00;49.10
69895;DHT22;57172;52.034;5.090;2023-09-30T10:54:32;26.50;48.80
69895;DHT22;57172;52.034;5.090;2023-09-30T10:57:00;27.20;47.00
69895;DHT22;57172;52.034;5.090;2023-09-30T10:59:31;27.60;45.40
69895;DHT22;57172;52.034;5.090;2023-09-30T11:01:59;27.90;45.20
69895;DHT22;57172;52.034;5.090;2023-09-30T11:04:27;28.20;44.30
69895;DHT22;57172;52.034;5.090;2023-09-30T11:06:55;28.00;44.30
69895;DHT22;57172;52.034;5.090;2023-09-30T11:09:23;28.10;43.20
69895;DHT22;57172;52.034;5.090;2023-09-30T11:11:52;27.60;43.50
69895;DHT22;57172;52.034;5.090;2023-09-30T11:14:26;27.50;44.50
69895;DHT22;57172;52.034;5.090;2023-09-30T11:17:00;27.90;44.20
69895;DHT22;57172;52.034;5.090;2023-09-30T11:19:36;28.30;43.50
69895;DHT22;57172;52.034;5.090;2023-09-30T11:22:04;28.40;43.20
69895;DHT22;57172;52.034;5.090;2023-09-30T11:24:35;28.60;43.70
69895;DHT22;57172;52.034;5.090;2023-09-30T11:27:03;28.90;43.20
69895;DHT22;57172;52.034;5.090;2023-09-30T11:29:31;29.00;41.50
69895;DHT22;57172;52.034;5.090;2023-09-30T11:31:59;29.00;40.70
69895;DHT22;57172;52.034;5.090;2023-09-30T11:34:33;29.10;40.50
69895;DHT22;57172;52.034;5.090;2023-09-30T11:37:01;29.20;40.10
69895;DHT22;57172;52.034;5.090;2023-09-30T11:39:37;29.10;40.10
69895;DHT22;57172;52.034;5.090;2023-09-30T11:42:16;28.90;39.70
69895;DHT22;57172;52.034;5.090;2023-09-30T11:44:47;28.60;40.10
69895;DHT22;57172;52.034;5.090;2023-09-30T11:47:14;28.70;40.30
69895;DHT22;57172;52.034;5.090;2023-09-30T11:49:52;28.90;40.50
69895;DHT22;57172;52.034;5.090;2023-09-30T11:52:27;29.00;40.50
69895;DHT22;57172;52.034;5.090;2023-09-30T11:54:56;29.20;40.60
69895;DHT22;57172;52.034;5.090;2023-09-30T11:57:24;29.10;40.50
69895;DHT22;57172;52.034;5.090;2023-09-30T11:59:52;29.10;39.90
69895;DHT22;57172;52.034;5.090;2023-09-30T12:02:19;28.90;39.00
69895;DHT22;57172;52.034;5.090;2023-09-30T12:04:46;28.80;39.60
69895;DHT22;57172;52.034;5.090;2023-09-30T12:07:16;28.40;39.40
69895;DHT22;57172;52.034;5.090;2023-09-30T12:09:43;27.80;39.60
69895;DHT22;57172;52.034;5.090;2023-09-30T12:12:14;27.00;39.90
69895;DHT22;57172;52.034;5.090;2023-09-30T12:14:42;26.30;41.20
69895;DHT22;57172;52.034;5.090;2023-09-30T12:17:09;26.00;42.60
69895;DHT22;57172;52.034;5.090;2023-09-30T12:19:42;26.20;43.30
69895;DHT22;57172;52.034;5.090;2023-09-30T12:22:10;26.60;43.90
69895;DHT22;57172;52.034;5.090;2023-09-30T12:24:38;27.10;43.20
69895;DHT22;57172;52.034;5.090;2023-09-30T12:27:07;27.40;42.20
69895;DHT22;57172;52.034;5.090;2023-09-30T12:29:34;27.50;41.80
69895;DHT22;57172;52.034;5.090;2023-09-30T12:32:00;27.30;41.70
69895;DHT22;57172;52.034;5.090;2023-09-30T12:34:28;27.20;41.60
69895;DHT22;57172;52.034;5.090;2023-09-30T12:36:55;27.20;41.40
69895;DHT22;57172;52.034;5.090;2023-09-30T12:39:26;27.20;40.70
69895;DHT22;57172;52.034;5.090;2023-09-30T12:41:57;26.90;40.60
69895;DHT22;57172;52.034;5.090;2023-09-30T12:44:24;26.60;41.20
69895;DHT22;57172;52.034;5.090;2023-09-30T12:46:51;26.40;41.60
69895;DHT22;57172;52.034;5.090;2023-09-30T12:49:18;26.10;41.90
69895;DHT22;57172;52.034;5.090;2023-09-30T12:51:45;26.00;42.30
69895;DHT22;57172;52.034;5.090;2023-09-30T12:54:13;26.10;43.10
69895;DHT22;57172;52.034;5.090;2023-09-30T12:56:41;26.20;43.10
69895;DHT22;57172;52.034;5.090;2023-09-30T12:59:09;26.40;43.40
69895;DHT22;57172;52.034;5.090;2023-09-30T13:01:36;26.70;42.90
69895;DHT22;57172;52.034;5.090;2023-09-30T13:04:03;26.90;42.30
69895;DHT22;57172;52.034;5.090;2023-09-30T13:06:35;27.00;41.60
69895;DHT22;57172;52.034;5.090;2023-09-30T13:09:02;27.20;41.40
69895;DHT22;57172;52.034;5.090;2023-09-30T13:11:32;27.30;41.20
69895;DHT22;57172;52.034;5.090;2023-09-30T13:14:03;27.10;41.50
69895;DHT22;57172;52.034;5.090;2023-09-30T13:16:30;27.00;41.30
69895;DHT22;57172;52.034;5.090;2023-09-30T13:18:57;26.70;41.20
69895;DHT22;57172;52.034;5.090;2023-09-30T13:21:25;26.70;41.00
69895;DHT22;57172;52.034;5.090;2023-09-30T13:23:52;26.70;41.20
69895;DHT22;57172;52.034;5.090;2023-09-30T13:26:19;26.80;41.00
69895;DHT22;57172;52.034;5.090;2023-09-30T13:28:46;26.80;41.30
69895;DHT22;57172;52.034;5.090;2023-09-30T13:31:14;26.90;41.00
69895;DHT22;57172;52.034;5.090;2023-09-30T13:33:41;26.90;41.30
69895;DHT22;57172;52.034;5.090;2023-09-30T13:36:08;26.90;40.90
69895;DHT22;57172;52.034;5.090;2023-09-30T13:38:35;26.80;40.80
69895;DHT22;57172;52.034;5.090;2023-09-30T13:41:04;27.10;40.80
69895;DHT22;57172;52.034;5.090;2023-09-30T13:43:31;27.10;40.20
69895;DHT22;57172;52.034;5.090;2023-09-30T13:45:58;27.20;40.60
69895;DHT22;57172;52.034;5.090;2023-09-30T13:48:29;27.30;40.50
69895;DHT22;57172;52.034;5.090;2023-09-30T13:51:07;27.20;40.00
69895;DHT22;57172;52.034;5.090;2023-09-30T13:53:34;26.80;40.50
69895;DHT22;57172;52.034;5.090;2023-09-30T13:56:01;26.70;40.00
69895;DHT22;57172;52.034;5.090;2023-09-30T13:58:30;26.50;40.20
69895;DHT22;57172;52.034;5.090;2023-09-30T14:00:57;26.30;40.30
69895;DHT22;57172;52.034;5.090;2023-09-30T14:03:24;26.20;41.30
69895;DHT22;57172;52.034;5.090;2023-09-30T14:05:52;26.30;41.90
69895;DHT22;57172;52.034;5.090;2023-09-30T14:08:20;26.60;41.60
69895;DHT22;57172;52.034;5.090;2023-09-30T14:10:47;27.00;41.10
69895;DHT22;57172;52.034;5.090;2023-09-30T14:13:17;27.10;40.60
69895;DHT22;57172;52.034;5.090;2023-09-30T14:15:44;27.10;40.60
69895;DHT22;57172;52.034;5.090;2023-09-30T14:18:11;27.20;40.90
69895;DHT22;57172;52.034;5.090;2023-09-30T14:20:38;27.30;40.50
69895;DHT22;57172;52.034;5.090;2023-09-30T14:23:05;27.00;40.00
69895;DHT22;57172;52.034;5.090;2023-09-30T14:25:32;26.70;40.50
69895;DHT22;57172;52.034;5.090;2023-09-30T14:28:00;26.60;40.80
69895;DHT22;57172;52.034;5.090;2023-09-30T14:30:27;26.30;40.90
69895;DHT22;57172;52.034;5.090;2023-09-30T14:32:54;26.00;41.60
69895;DHT22;57172;52.034;5.090;2023-09-30T14:35:21;26.10;42.10
69895;DHT22;57172;52.034;5.090;2023-09-30T14:37:48;26.30;42.40
69895;DHT22;57172;52.034;5.090;2023-09-30T14:40:15;26.70;42.00
69895;DHT22;57172;52.034;5.090;2023-09-30T14:42:42;26.80;41.20
69895;DHT22;57172;52.034;5.090;2023-09-30T14:45:10;26.90;41.50
69895;DHT22;57172;52.034;5.090;2023-09-30T14:47:37;27.00;41.00
69895;DHT22;57172;52.034;5.090;2023-09-30T14:50:08;27.10;40.50
69895;DHT22;57172;52.034;5.090;2023-09-30T14:52:35;27.10;40.30
69895;DHT22;57172;52.034;5.090;2023-09-30T14:55:03;27.10;39.90
69895;DHT22;57172;52.034;5.090;2023-09-30T14:57:30;26.90;40.10
69895;DHT22;57172;52.034;5.090;2023-09-30T14:59:58;26.60;40.00
69895;DHT22;57172;52.034;5.090;2023-09-30T15:02:28;26.10;40.10
69895;DHT22;57172;52.034;5.090;2023-09-30T15:04:55;25.80;40.80
69895;DHT22;57172;52.034;5.090;2023-09-30T15:07:23;25.60;41.40
69895;DHT22;57172;52.034;5.090;2023-09-30T15:09:50;25.60;42.20
69895;DHT22;57172;52.034;5.090;2023-09-30T15:12:19;25.80;42.20
69895;DHT22;57172;52.034;5.090;2023-09-30T15:14:46;26.00;41.90
69895;DHT22;57172;52.034;5.090;2023-09-30T15:17:13;26.00;42.10
69895;DHT22;57172;52.034;5.090;2023-09-30T15:19:39;25.90;41.70
69895;DHT22;57172;52.034;5.090;2023-09-30T15:22:06;25.50;41.90
69895;DHT22;57172;52.034;5.090;2023-09-30T15:24:33;25.30;42.20
69895;DHT22;57172;52.034;5.090;2023-09-30T15:27:01;24.90;42.40
69895;DHT22;57172;52.034;5.090;2023-09-30T15:29:28;24.60;42.70
69895;DHT22;57172;52.034;5.090;2023-09-30T15:31:55;24.30;43.10
69895;DHT22;57172;52.034;5.090;2023-09-30T15:34:22;24.20;43.50
69895;DHT22;57172;52.034;5.090;2023-09-30T15:36:49;24.00;43.70
69895;DHT22;57172;52.034;5.090;2023-09-30T15:39:16;23.80;44.00
69895;DHT22;57172;52.034;5.090;2023-09-30T15:41:43;23.50;44.10
69895;DHT22;57172;52.034;5.090;2023-09-30T15:44:10;23.30;44.60
69895;DHT22;57172;52.034;5.090;2023-09-30T15:46:37;23.20;44.90
69895;DHT22;57172;52.034;5.090;2023-09-30T15:49:04;23.10;45.20
69895;DHT22;57172;52.034;5.090;2023-09-30T15:51:31;22.90;45.50